Terminal Aerodrome Forecast
Issued by NWS

Home | Current Version | Previous Version | Text Only | Print | Product List | Glossary On
Versions: 1 2 3 4 5 6 7 8 9 10 11 12 13 14 15 16 17 18
000
FTUS43 KAPX 021400 AAA
TAFMBL
TAF AMD
KMBL 021436Z 0215/0312 13008KT 2SM SHRA SCT008 OVC023
     FM021600 14008KT P6SM OVC025
     FM021800 14008KT P6SM SCT025 OVC060
     FM022200 14007KT P6SM OVC035
     FM030300 14005KT 2SM RA BR OVC004
      AMD NOT SKED=

USA.gov is the U.S. government's official web portal to all federal, state and local government web resources and services.